ADDS METAR Data INFO
IDs: Format: Raw Decoded Include TAF

Data at: 1409 UTC 24 Feb 2018

KJMS 241356Z AUTO 18009KT 10SM CLR M19/M21 A2995 RMK AO2 SLP183 T11941211
KJMS 241256Z AUTO 15010KT 10SM CLR M20/M22 A2996 RMK AO2 SLP185 T12001217
KJMS 241156Z AUTO 14003KT 10SM CLR M20/M22 A2998 RMK AO2 SLP190 I6000 T12001222 11167 21211 58025
KJMS 241056Z AUTO 17005KT 10SM CLR M21/M22 A3001 RMK AO2 SLP199 T12061222
KJMS 240956Z AUTO 19007KT 10SM CLR M18/M19 A3004 RMK AO2 SLP207 T11781194
KJMS 240856Z AUTO 19005KT 10SM CLR M19/M22 A3005 RMK AO2 SLP213 I1000 I3000 T11941217 58029
KJMS 240756Z AUTO 17004KT 10SM CLR M18/M20 A3008 RMK AO2 SLP223 I1000 T11831200
KJMS 240656Z AUTO 19008KT 10SM CLR M17/M19 A3012 RMK AO2 SLP235 T11721189
KJMS 240556Z AUTO 20003KT 10SM CLR M17/M18 A3014 RMK AO2 SLP244 T11671183 11106 21167 410721167 58019
KJMS 240456Z AUTO 21007KT 10SM CLR M17/M18 A3017 RMK AO2 SLP254 T11671183
KJMS 240356Z AUTO 20008KT 10SM CLR M16/M18 A3019 RMK AO2 SLP261 T11561178
KJMS 240256Z AUTO 21007KT 10SM CLR M14/M16 A3020 RMK AO2 SLP263 T11441161 50003
KJMS 240156Z AUTO 21006KT 10SM CLR M14/M16 A3021 RMK AO2 SLP266 T11441161
KJMS 240056Z AUTO 20005KT 10SM CLR M12/M15 A3020 RMK AO2 SLP262 T11221150
KJMS 232356Z AUTO 23006KT 10SM CLR M11/M14 A3019 RMK AO2 SLP256 T11061139 11078 21111 55003
KJMS 232256Z AUTO 27009KT 10SM CLR M09/M13 A3018 RMK AO2 SLP252 T10891133
KJMS 232156Z AUTO 28010KT 10SM CLR M08/M13 A3019 RMK AO2 SLP253 T10831128
KJMS 232056Z AUTO 26008KT 10SM CLR M08/M12 A3020 RMK AO2 SLP256 T10781122 56005
KJMS 231956Z AUTO 30008KT 10SM CLR M08/M13 A3020 RMK AO2 SLP257 T10831128
KJMS 231856Z AUTO 30012KT 10SM CLR M10/M14 A3021 RMK AO2 SLP261 T11001139
KJMS 231756Z AUTO 33011KT 10SM CLR M11/M15 A3022 RMK AO2 SLP263 60000 T11111150 11106 21133 53011
KJMS 231656Z AUTO 33012KT 10SM CLR M12/M16 A3020 RMK AO2 SLP259 T11171161
KJMS 231556Z AUTO 31014KT 10SM CLR M12/M17 A3018 RMK AO2 SLP253 T11221167
KJMS 231456Z AUTO 30011KT 10SM SCT110 M12/M16 A3018 RMK AO2 SLP253 60000 T11221161 53015
KJMS 231356Z AUTO 32011KT 10SM BKN075 OVC100 M13/M16 A3016 RMK AO2 SLP245 T11281156
KJMS 231256Z AUTO 32014KT 10SM OVC055 M12/M14 A3015 RMK AO2 SNE41 SLP241 P0000 T11171144
KJMS 231207Z AUTO 32016KT 4SM -SN BR OVC049 M11/M13 A3014 RMK AO2 P0000 T11061128
KJMS 231156Z AUTO 32014KT 2 1/2SM -SN BR OVC047 M11/M13 A3014 RMK AO2 SLP236 P0000 60003 70008 T11061128 11072 21106 53004
KJMS 231139Z AUTO 32012KT 4SM -SN BR OVC041 M11/M13 A3013 RMK AO2 P0000 T11061128
KJMS 231129Z AUTO 33011KT 2 1/2SM -SN BR OVC030 M11/M12 A3013 RMK AO2 P0000 T11061122
KJMS 231122Z AUTO 33013KT 1 3/4SM -SN BR OVC030 M11/M12 A3013 RMK AO2 P0000 T11061122
KJMS 231112Z AUTO 32012KT 2SM -SN BR OVC034 M10/M12 A3013 RMK AO2 P0000 T11001117
KJMS 231056Z AUTO 32012KT 3SM -SN BR OVC040 M10/M12 A3013 RMK AO2 SLP230 P0000 T11001117
KJMS 231036Z AUTO 33012KT 2 1/2SM -SN BR BKN046 OVC070 M09/M11 A3012 RMK AO2 P0000 T10941111
KJMS 231016Z AUTO 32009KT 4SM -SN BR BKN060 OVC080 M09/M11 A3012 RMK AO2 P0000 T10941111
KJMS 231005Z AUTO 33010KT 2SM -SN BR BKN055 OVC070 M09/M11 A3012 RMK AO2 P0000 T10941111
KJMS 230956Z AUTO 33011KT 4SM -SN BR BKN055 OVC070 M09/M11 A3012 RMK AO2 SLP228 P0000 T10891106
KJMS 230934Z AUTO 32009KT 3SM -SN BR BKN033 OVC070 M09/M10 A3012 RMK AO2 P0000 T10891100
KJMS 230856Z AUTO 33012KT 2 1/2SM -SN BR OVC043 M08/M09 A3013 RMK AO2 SLP228 P0001 60003 T10781094 56010
KJMS 230833Z AUTO 32006KT 2 1/2SM -SN BR OVC033 M07/M08 A3013 RMK AO2 P0001 T10721083
KJMS 230816Z AUTO 34004KT 2SM -SN BR OVC027 M07/M08 A3013 RMK AO2 P0001 T10721083
KJMS 230804Z AUTO 33004KT 1 3/4SM -SN BR OVC027 M07/M08 A3013 RMK AO2 P0001 T10721083
KJMS 230756Z AUTO 33004KT 2SM -SN BR OVC029 M07/M08 A3013 RMK AO2 SLP231 P0000 T10721083
KJMS 230656Z AUTO 33005KT 1 1/2SM -SN BR OVC024 M07/M08 A3014 RMK AO2 SLP235 P0002 T10721083
KJMS 230556Z AUTO 34004KT 1SM -SN BR VV016 M07/M08 A3016 RMK AO2 SLP241 P0003 60005 T10721083 11067 21078 410441206 58008
KJMS 230548Z AUTO 35005KT 1SM -SN BR VV015 M07/M08 A3016 RMK AO2 P0003 T10721083
KJMS 230536Z AUTO 34005KT 3/4SM -SN BR VV013 M07/M08 A3017 RMK AO2 P0003 T10721083
KJMS 230529Z AUTO 34004KT 1SM -SN BR VV012 M07/M08 A3017 RMK AO2 P0002 T10721083
KJMS 230456Z AUTO 34003KT 3/4SM -SN BR VV013 M07/M08 A3018 RMK AO2 SLP250 P0002 T10721083
KJMS 230451Z AUTO 00000KT 3/4SM -SN BR VV014 M07/M08 A3018 RMK AO2 P0001
KJMS 230356Z AUTO 00000KT 1 3/4SM -SN BR OVC028 M07/M08 A3018 RMK AO2 SNB17 SLP253 P0000 T10671078
KJMS 230354Z AUTO 00000KT 1 3/4SM -SN BR OVC028 M07/M08 A3018 RMK AO2 SNB17 P0000
KJMS 230339Z AUTO 00000KT 2 1/2SM -SN BR OVC034 M07/M08 A3019 RMK AO2 SNB17 P0000 T10671078
KJMS 230256Z AUTO 15005KT 10SM FEW055 OVC070 M07/M09 A3019 RMK AO2 SLP261 T10721089 58008